GLO1741 SBBV-SBBR
Flight info
| Callsign | GLO1741 |
|---|---|
| Flight time | N/A |
| Altitude | 37000 |
| Route | KIGOX DCT LODOK UZ24 OPNAX |
| Aircraft | B738/M-SDFGIKLORWXY/LB1 |
Departure
| Time | 2026-04-22 16:16 |
|---|---|
| Airport | Atlas Brasil Cantanhede International Airport (SBBV) |
Arrival
| Time | N/A |
|---|---|
| Airport | Presidente Juscelino Kubitschek International Airport (SBBR) |
| Time | Latitude | Longitude | Altitude | Speed | Heading |
|---|---|---|---|---|---|
| 2026-04-22 15:52 | 2.84200 | -60.69247 | 279 ft | 0 kts | 152° |
| 2026-04-22 16:10 | 2.84214 | -60.69254 | 283 ft | 4 kts | 147° |
| 2026-04-22 16:10 | 2.84228 | -60.69265 | 279 ft | 4 kts | 139° |
| 2026-04-22 16:10 | 2.84249 | -60.69292 | 282 ft | 4 kts | 97° |
| 2026-04-22 16:11 | 2.84247 | -60.69308 | 284 ft | 1 kts | 63° |
| 2026-04-22 16:11 | 2.84245 | -60.69311 | 283 ft | 0 kts | 63° |
| 2026-04-22 16:12 | 2.84247 | -60.69309 | 283 ft | 2 kts | 63° |
| 2026-04-22 16:13 | 2.84260 | -60.69283 | 281 ft | 7 kts | 63° |
| 2026-04-22 16:13 | 2.84301 | -60.69234 | 278 ft | 11 kts | 10° |
| 2026-04-22 16:13 | 2.84314 | -60.69298 | 284 ft | 14 kts | 242° |
| 2026-04-22 16:13 | 2.84264 | -60.69395 | 280 ft | 18 kts | 243° |
| 2026-04-22 16:14 | 2.84203 | -60.69514 | 278 ft | 21 kts | 242° |
| 2026-04-22 16:14 | 2.84132 | -60.69652 | 278 ft | 24 kts | 243° |
| 2026-04-22 16:14 | 2.84053 | -60.69807 | 282 ft | 26 kts | 243° |
| 2026-04-22 16:14 | 2.83974 | -60.69959 | 279 ft | 24 kts | 243° |
| 2026-04-22 16:15 | 2.84045 | -60.70060 | 279 ft | 21 kts | 346° |
| 2026-04-22 16:15 | 2.84139 | -60.69967 | 280 ft | 30 kts | 64° |
| 2026-04-22 16:15 | 2.84351 | -60.69552 | 278 ft | 103 kts | 63° |
| 2026-04-22 16:15 | 2.84779 | -60.68718 | 281 ft | 164 kts | 62° |
| 2026-04-22 16:16 | 2.85393 | -60.67598 | 544 ft | 194 kts | 60° |
| 2026-04-22 16:16 | 2.85992 | -60.66447 | 1667 ft | 175 kts | 64° |
| 2026-04-22 16:16 | 2.86526 | -60.65381 | 2619 ft | 173 kts | 63° |
| 2026-04-22 16:16 | 2.87114 | -60.64218 | 2949 ft | 202 kts | 63° |
| 2026-04-22 16:17 | 2.87697 | -60.62862 | 3170 ft | 226 kts | 79° |
| 2026-04-22 16:17 | 2.87550 | -60.61227 | 3370 ft | 254 kts | 111° |
| 2026-04-22 16:17 | 2.86422 | -60.59831 | 3917 ft | 268 kts | 144° |
| 2026-04-22 16:17 | 2.84732 | -60.59006 | 4703 ft | 273 kts | 158° |
| 2026-04-22 16:18 | 2.82921 | -60.58398 | 5523 ft | 276 kts | 161° |
| 2026-04-22 16:18 | 2.81082 | -60.57832 | 6301 ft | 279 kts | 162° |
| 2026-04-22 16:18 | 2.79215 | -60.57257 | 7064 ft | 281 kts | 162° |
| 2026-04-22 16:18 | 2.77343 | -60.56668 | 7883 ft | 282 kts | 162° |
| 2026-04-22 16:19 | 2.75460 | -60.56065 | 8663 ft | 285 kts | 162° |
| 2026-04-22 16:19 | 2.73560 | -60.55446 | 9462 ft | 288 kts | 162° |
| 2026-04-22 16:19 | 2.71653 | -60.54819 | 10201 ft | 290 kts | 162° |
| 2026-04-22 16:19 | 2.69673 | -60.54163 | 10475 ft | 311 kts | 162° |
| 2026-04-22 16:20 | 2.67543 | -60.53454 | 10633 ft | 333 kts | 162° |
| 2026-04-22 16:20 | 2.65285 | -60.52699 | 10867 ft | 350 kts | 162° |
| 2026-04-22 16:20 | 2.62979 | -60.51926 | 11355 ft | 357 kts | 162° |
| 2026-04-22 16:20 | 2.60619 | -60.51134 | 12012 ft | 358 kts | 162° |
| 2026-04-22 16:21 | 2.58247 | -60.50336 | 12612 ft | 362 kts | 162° |
| 2026-04-22 16:21 | 2.55843 | -60.49528 | 13197 ft | 366 kts | 162° |
| 2026-04-22 16:21 | 2.53411 | -60.48711 | 13764 ft | 370 kts | 162° |
| 2026-04-22 16:21 | 2.50956 | -60.47885 | 14290 ft | 373 kts | 162° |
| 2026-04-22 16:22 | 2.46838 | -60.46501 | 15184 ft | 378 kts | 162° |
| 2026-04-22 16:22 | 2.43487 | -60.45375 | 15866 ft | 383 kts | 162° |
| 2026-04-22 16:22 | 2.41772 | -60.44798 | 16213 ft | 385 kts | 162° |
| 2026-04-22 16:23 | 2.36697 | -60.43092 | 17215 ft | 391 kts | 162° |
| 2026-04-22 16:23 | 2.34102 | -60.42220 | 17699 ft | 395 kts | 162° |
| 2026-04-22 16:23 | 2.31478 | -60.41339 | 18166 ft | 398 kts | 162° |
| 2026-04-22 16:24 | 2.28842 | -60.40452 | 18566 ft | 402 kts | 161° |
| 2026-04-22 16:24 | 2.24183 | -60.37381 | 19408 ft | 406 kts | 138° |
| 2026-04-22 16:24 | 2.22079 | -60.35481 | 19831 ft | 408 kts | 138° |
| 2026-04-22 16:25 | 2.19968 | -60.33561 | 20218 ft | 411 kts | 137° |
| 2026-04-22 16:25 | 2.15699 | -60.29700 | 21020 ft | 416 kts | 137° |
| 2026-04-22 16:25 | 2.13542 | -60.27765 | 21411 ft | 418 kts | 138° |
| 2026-04-22 16:26 | 2.11369 | -60.25822 | 21794 ft | 421 kts | 137° |
| 2026-04-22 16:26 | 2.09177 | -60.23867 | 22178 ft | 423 kts | 137° |
| 2026-04-22 16:26 | 2.06977 | -60.21908 | 22555 ft | 425 kts | 137° |
| 2026-04-22 16:26 | 2.04755 | -60.19931 | 22925 ft | 427 kts | 137° |
| 2026-04-22 16:27 | 2.02531 | -60.17953 | 23284 ft | 429 kts | 137° |
| 2026-04-22 16:27 | 2.00291 | -60.15960 | 23604 ft | 432 kts | 137° |
| 2026-04-22 16:27 | 1.98069 | -60.13983 | 23900 ft | 434 kts | 137° |
| 2026-04-22 16:27 | 1.95813 | -60.11977 | 24249 ft | 433 kts | 137° |
| 2026-04-22 16:28 | 1.93558 | -60.09971 | 24577 ft | 434 kts | 137° |
| 2026-04-22 16:28 | 1.91292 | -60.07955 | 24846 ft | 436 kts | 138° |
| 2026-04-22 16:28 | 1.89018 | -60.05933 | 25147 ft | 437 kts | 138° |
| 2026-04-22 16:28 | 1.86747 | -60.03913 | 25475 ft | 438 kts | 138° |
| 2026-04-22 16:29 | 1.84461 | -60.01880 | 25770 ft | 439 kts | 138° |
| 2026-04-22 16:29 | 1.82172 | -59.99843 | 26016 ft | 441 kts | 138° |
| 2026-04-22 16:29 | 1.79869 | -59.97795 | 26259 ft | 443 kts | 138° |
| 2026-04-22 16:29 | 1.77564 | -59.95745 | 26528 ft | 445 kts | 138° |
| 2026-04-22 16:30 | 1.76029 | -59.94379 | 26708 ft | 446 kts | 138° |
| 2026-04-22 16:30 | 1.72948 | -59.91640 | 27054 ft | 448 kts | 138° |
| 2026-04-22 16:30 | 1.70621 | -59.89571 | 27306 ft | 449 kts | 138° |
| 2026-04-22 16:30 | 1.68281 | -59.87489 | 27542 ft | 451 kts | 138° |
| 2026-04-22 16:31 | 1.65931 | -59.85399 | 27777 ft | 453 kts | 138° |
| 2026-04-22 16:31 | 1.63572 | -59.83302 | 28006 ft | 454 kts | 138° |
| 2026-04-22 16:31 | 1.61205 | -59.81197 | 28238 ft | 456 kts | 138° |
| 2026-04-22 16:31 | 1.58824 | -59.79081 | 28474 ft | 457 kts | 138° |
| 2026-04-22 16:32 | 1.56443 | -59.76963 | 28702 ft | 458 kts | 138° |
| 2026-04-22 16:32 | 1.54091 | -59.74872 | 28919 ft | 460 kts | 138° |
| 2026-04-22 16:32 | 1.51695 | -59.72742 | 29138 ft | 461 kts | 138° |
| 2026-04-22 16:32 | 1.49292 | -59.70605 | 29336 ft | 462 kts | 138° |
| 2026-04-22 16:33 | 1.46888 | -59.68468 | 29570 ft | 464 kts | 138° |
| 2026-04-22 16:33 | 1.44474 | -59.66322 | 29807 ft | 464 kts | 138° |
| 2026-04-22 16:33 | 1.42058 | -59.64175 | 30113 ft | 463 kts | 138° |
| 2026-04-22 16:33 | 1.39661 | -59.62044 | 30391 ft | 461 kts | 138° |
| 2026-04-22 16:34 | 1.37265 | -59.59914 | 30647 ft | 460 kts | 138° |
| 2026-04-22 16:34 | 1.34870 | -59.57785 | 30884 ft | 460 kts | 138° |
| 2026-04-22 16:34 | 1.32478 | -59.55659 | 31158 ft | 459 kts | 138° |
| 2026-04-22 16:34 | 1.30097 | -59.53542 | 31429 ft | 458 kts | 138° |
| 2026-04-22 16:35 | 1.27716 | -59.51426 | 31699 ft | 457 kts | 138° |
| 2026-04-22 16:35 | 1.25338 | -59.49313 | 31958 ft | 457 kts | 138° |
| 2026-04-22 16:35 | 1.22969 | -59.47208 | 32218 ft | 456 kts | 138° |
| 2026-04-22 16:35 | 1.20599 | -59.45101 | 32485 ft | 455 kts | 138° |
| 2026-04-22 16:36 | 1.18231 | -59.42997 | 32741 ft | 455 kts | 138° |
| 2026-04-22 16:36 | 1.15868 | -59.40896 | 33016 ft | 454 kts | 138° |
| 2026-04-22 16:36 | 1.13509 | -59.38800 | 33289 ft | 453 kts | 137° |
| 2026-04-22 16:36 | 1.11159 | -59.36712 | 33561 ft | 452 kts | 137° |
| 2026-04-22 16:37 | 1.08810 | -59.34624 | 33848 ft | 451 kts | 137° |
| 2026-04-22 16:37 | 1.06466 | -59.32542 | 34099 ft | 450 kts | 137° |
| 2026-04-22 16:37 | 1.04158 | -59.30490 | 34319 ft | 449 kts | 137° |
| 2026-04-22 16:37 | 1.01820 | -59.28413 | 34533 ft | 449 kts | 137° |
| 2026-04-22 16:38 | 0.99489 | -59.26342 | 34788 ft | 447 kts | 137° |
| 2026-04-22 16:38 | 0.97167 | -59.24279 | 35046 ft | 445 kts | 137° |
| 2026-04-22 16:38 | 0.94853 | -59.22223 | 35280 ft | 444 kts | 137° |
| 2026-04-22 16:38 | 0.92546 | -59.20173 | 35482 ft | 444 kts | 137° |
| 2026-04-22 16:39 | 0.90233 | -59.18118 | 35702 ft | 443 kts | 137° |
| 2026-04-22 16:39 | 0.87931 | -59.16073 | 35944 ft | 441 kts | 137° |
| 2026-04-22 16:39 | 0.85642 | -59.14039 | 36170 ft | 440 kts | 137° |
| 2026-04-22 16:39 | 0.83353 | -59.12005 | 36366 ft | 440 kts | 137° |
| 2026-04-22 16:40 | 0.81070 | -59.09977 | 36551 ft | 439 kts | 137° |
| 2026-04-22 16:40 | 0.78786 | -59.07948 | 36767 ft | 438 kts | 137° |
| 2026-04-22 16:40 | 0.74235 | -59.03904 | 36939 ft | 438 kts | 137° |
| 2026-04-22 16:41 | 0.71985 | -59.01905 | 36959 ft | 438 kts | 137° |
| 2026-04-22 16:41 | 0.67433 | -58.97861 | 36961 ft | 437 kts | 137° |
| 2026-04-22 16:42 | 0.62897 | -58.93832 | 36962 ft | 436 kts | 137° |
| 2026-04-22 16:42 | 0.58368 | -58.89809 | 36956 ft | 435 kts | 137° |
| 2026-04-22 16:43 | 0.53839 | -58.85786 | 36958 ft | 435 kts | 137° |
| 2026-04-22 16:43 | 0.49313 | -58.81765 | 36963 ft | 435 kts | 137° |
| 2026-04-22 16:44 | 0.44791 | -58.77748 | 36954 ft | 435 kts | 137° |
| 2026-04-22 16:44 | 0.40266 | -58.73729 | 36947 ft | 435 kts | 137° |
| 2026-04-22 16:45 | 0.35761 | -58.69727 | 36962 ft | 436 kts | 137° |
| 2026-04-22 16:45 | 0.31219 | -58.65693 | 36956 ft | 437 kts | 137° |
| 2026-04-22 16:46 | 0.26671 | -58.61653 | 36962 ft | 437 kts | 137° |
| 2026-04-22 16:46 | 0.22122 | -58.57613 | 36952 ft | 438 kts | 137° |
| 2026-04-22 16:47 | 0.17569 | -58.53569 | 36955 ft | 438 kts | 137° |
| 2026-04-22 16:47 | 0.13038 | -58.49544 | 36949 ft | 438 kts | 137° |
| 2026-04-22 16:48 | 0.08450 | -58.45469 | 36955 ft | 438 kts | 137° |
| 2026-04-22 16:48 | 0.03920 | -58.41445 | 36953 ft | 438 kts | 137° |
| 2026-04-22 16:49 | -0.00633 | -58.37402 | 36927 ft | 438 kts | 137° |
| 2026-04-22 16:49 | -0.05219 | -58.33328 | 36953 ft | 444 kts | 137° |
| 2026-04-22 16:50 | -0.09856 | -58.29208 | 36960 ft | 448 kts | 137° |
| 2026-04-22 16:50 | -0.14536 | -58.25052 | 36956 ft | 451 kts | 137° |
| 2026-04-22 16:51 | -0.19244 | -58.20871 | 36952 ft | 453 kts | 137° |
| 2026-04-22 16:51 | -0.23147 | -58.17405 | 36930 ft | 447 kts | 137° |